sensor_id;sensor_type;location;lat;lon;timestamp;P1;durP1;ratioP1;P2;durP2;ratioP2
7645;SDS011;3864;48.180;14.178;2023-07-20T00:01:54;8.02;;;5.97;;
7645;SDS011;3864;48.180;14.178;2023-07-20T00:04:22;10.27;;;5.90;;
7645;SDS011;3864;48.180;14.178;2023-07-20T00:06:49;7.75;;;5.60;;
7645;SDS011;3864;48.180;14.178;2023-07-20T00:09:18;11.27;;;6.18;;
7645;SDS011;3864;48.180;14.178;2023-07-20T00:11:48;10.30;;;5.85;;
7645;SDS011;3864;48.180;14.178;2023-07-20T00:14:17;11.32;;;5.22;;
7645;SDS011;3864;48.180;14.178;2023-07-20T00:16:44;8.77;;;5.55;;
7645;SDS011;3864;48.180;14.178;2023-07-20T00:19:14;8.05;;;5.40;;
7645;SDS011;3864;48.180;14.178;2023-07-20T00:21:42;8.32;;;5.75;;
7645;SDS011;3864;48.180;14.178;2023-07-20T00:24:09;9.13;;;5.60;;
7645;SDS011;3864;48.180;14.178;2023-07-20T00:26:41;7.70;;;4.80;;
7645;SDS011;3864;48.180;14.178;2023-07-20T00:29:08;8.40;;;5.47;;
7645;SDS011;3864;48.180;14.178;2023-07-20T00:31:36;9.10;;;4.97;;
7645;SDS011;3864;48.180;14.178;2023-07-20T00:34:03;8.75;;;4.68;;
7645;SDS011;3864;48.180;14.178;2023-07-20T00:36:31;7.07;;;4.88;;
7645;SDS011;3864;48.180;14.178;2023-07-20T00:38:58;7.40;;;5.25;;
7645;SDS011;3864;48.180;14.178;2023-07-20T00:41:25;6.65;;;5.00;;
7645;SDS011;3864;48.180;14.178;2023-07-20T00:43:56;8.55;;;5.10;;
7645;SDS011;3864;48.180;14.178;2023-07-20T00:46:23;7.68;;;5.13;;
7645;SDS011;3864;48.180;14.178;2023-07-20T00:48:51;7.00;;;4.60;;
7645;SDS011;3864;48.180;14.178;2023-07-20T00:51:19;8.38;;;5.40;;
7645;SDS011;3864;48.180;14.178;2023-07-20T00:53:47;9.18;;;5.53;;
7645;SDS011;3864;48.180;14.178;2023-07-20T00:56:15;7.93;;;5.47;;
7645;SDS011;3864;48.180;14.178;2023-07-20T00:58:43;9.50;;;5.68;;
7645;SDS011;3864;48.180;14.178;2023-07-20T01:01:12;7.97;;;5.85;;
7645;SDS011;3864;48.180;14.178;2023-07-20T01:03:39;8.27;;;5.75;;
7645;SDS011;3864;48.180;14.178;2023-07-20T01:06:09;10.50;;;5.45;;
7645;SDS011;3864;48.180;14.178;2023-07-20T01:08:47;7.88;;;5.55;;
7645;SDS011;3864;48.180;14.178;2023-07-20T01:11:22;8.02;;;5.22;;
7645;SDS011;3864;48.180;14.178;2023-07-20T01:13:55;8.73;;;5.15;;
7645;SDS011;3864;48.180;14.178;2023-07-20T01:16:24;7.85;;;5.63;;
7645;SDS011;3864;48.180;14.178;2023-07-20T01:18:51;10.57;;;5.20;;
7645;SDS011;3864;48.180;14.178;2023-07-20T01:21:21;8.82;;;5.00;;
7645;SDS011;3864;48.180;14.178;2023-07-20T01:26:54;6.38;;;4.38;;
7645;SDS011;3864;48.180;14.178;2023-07-20T01:29:54;7.63;;;4.63;;
7645;SDS011;3864;48.180;14.178;2023-07-20T01:32:33;6.30;;;4.20;;
7645;SDS011;3864;48.180;14.178;2023-07-20T01:35:01;7.82;;;4.28;;
7645;SDS011;3864;48.180;14.178;2023-07-20T01:37:31;6.38;;;4.45;;
7645;SDS011;3864;48.180;14.178;2023-07-20T01:40:00;7.13;;;4.35;;
7645;SDS011;3864;48.180;14.178;2023-07-20T01:42:28;7.45;;;4.80;;
7645;SDS011;3864;48.180;14.178;2023-07-20T01:44:55;7.32;;;4.47;;
7645;SDS011;3864;48.180;14.178;2023-07-20T01:47:23;6.78;;;4.60;;
7645;SDS011;3864;48.180;14.178;2023-07-20T01:49:52;7.30;;;4.50;;
7645;SDS011;3864;48.180;14.178;2023-07-20T01:52:19;7.45;;;4.22;;
7645;SDS011;3864;48.180;14.178;2023-07-20T01:54:46;6.68;;;4.40;;
7645;SDS011;3864;48.180;14.178;2023-07-20T01:57:14;6.47;;;4.43;;
7645;SDS011;3864;48.180;14.178;2023-07-20T01:59:41;10.15;;;4.18;;
7645;SDS011;3864;48.180;14.178;2023-07-20T02:02:09;9.30;;;4.68;;
7645;SDS011;3864;48.180;14.178;2023-07-20T02:04:36;7.68;;;4.78;;
7645;SDS011;3864;48.180;14.178;2023-07-20T02:07:05;6.57;;;4.20;;
7645;SDS011;3864;48.180;14.178;2023-07-20T02:09:33;6.50;;;4.40;;
7645;SDS011;3864;48.180;14.178;2023-07-20T02:12:00;7.18;;;4.90;;
7645;SDS011;3864;48.180;14.178;2023-07-20T02:14:27;7.10;;;4.57;;
7645;SDS011;3864;48.180;14.178;2023-07-20T02:16:54;7.88;;;4.85;;
7645;SDS011;3864;48.180;14.178;2023-07-20T02:19:24;7.25;;;4.68;;
7645;SDS011;3864;48.180;14.178;2023-07-20T02:21:52;12.80;;;5.82;;
7645;SDS011;3864;48.180;14.178;2023-07-20T02:24:21;8.52;;;4.63;;
7645;SDS011;3864;48.180;14.178;2023-07-20T02:26:48;8.40;;;5.38;;
7645;SDS011;3864;48.180;14.178;2023-07-20T02:29:15;9.80;;;5.65;;
7645;SDS011;3864;48.180;14.178;2023-07-20T02:31:43;8.57;;;5.60;;
7645;SDS011;3864;48.180;14.178;2023-07-20T02:34:10;9.90;;;5.22;;
7645;SDS011;3864;48.180;14.178;2023-07-20T02:36:37;8.93;;;5.22;;
7645;SDS011;3864;48.180;14.178;2023-07-20T02:39:04;10.23;;;5.25;;
7645;SDS011;3864;48.180;14.178;2023-07-20T02:41:34;10.27;;;6.05;;
7645;SDS011;3864;48.180;14.178;2023-07-20T02:44:01;9.57;;;6.03;;
7645;SDS011;3864;48.180;14.178;2023-07-20T02:46:28;8.57;;;5.70;;
7645;SDS011;3864;48.180;14.178;2023-07-20T02:48:56;9.38;;;5.15;;
7645;SDS011;3864;48.180;14.178;2023-07-20T02:51:23;8.30;;;5.13;;
7645;SDS011;3864;48.180;14.178;2023-07-20T02:53:50;10.10;;;5.95;;
7645;SDS011;3864;48.180;14.178;2023-07-20T02:56:18;8.35;;;4.95;;
7645;SDS011;3864;48.180;14.178;2023-07-20T02:58:46;11.02;;;5.88;;
7645;SDS011;3864;48.180;14.178;2023-07-20T03:01:14;9.07;;;5.50;;
7645;SDS011;3864;48.180;14.178;2023-07-20T03:03:41;7.28;;;5.28;;
7645;SDS011;3864;48.180;14.178;2023-07-20T03:06:12;7.50;;;5.38;;
7645;SDS011;3864;48.180;14.178;2023-07-20T03:08:40;8.52;;;5.57;;
7645;SDS011;3864;48.180;14.178;2023-07-20T03:11:12;7.68;;;5.53;;
7645;SDS011;3864;48.180;14.178;2023-07-20T03:13:40;9.23;;;6.50;;
7645;SDS011;3864;48.180;14.178;2023-07-20T03:16:09;7.28;;;5.13;;
7645;SDS011;3864;48.180;14.178;2023-07-20T03:18:37;8.38;;;5.50;;
7645;SDS011;3864;48.180;14.178;2023-07-20T03:21:04;10.65;;;5.47;;
7645;SDS011;3864;48.180;14.178;2023-07-20T03:23:32;9.13;;;5.40;;
7645;SDS011;3864;48.180;14.178;2023-07-20T03:26:00;9.60;;;5.60;;
7645;SDS011;3864;48.180;14.178;2023-07-20T03:28:27;8.40;;;6.20;;
7645;SDS011;3864;48.180;14.178;2023-07-20T03:30:55;9.40;;;6.22;;
7645;SDS011;3864;48.180;14.178;2023-07-20T03:33:24;9.38;;;6.15;;
7645;SDS011;3864;48.180;14.178;2023-07-20T03:35:52;8.63;;;5.47;;
7645;SDS011;3864;48.180;14.178;2023-07-20T03:38:20;9.95;;;5.90;;
7645;SDS011;3864;48.180;14.178;2023-07-20T03:40:50;8.50;;;6.03;;
7645;SDS011;3864;48.180;14.178;2023-07-20T03:43:18;9.00;;;5.45;;
7645;SDS011;3864;48.180;14.178;2023-07-20T03:45:46;8.27;;;6.30;;
7645;SDS011;3864;48.180;14.178;2023-07-20T03:48:15;8.32;;;5.85;;
7645;SDS011;3864;48.180;14.178;2023-07-20T03:50:44;11.50;;;6.82;;
7645;SDS011;3864;48.180;14.178;2023-07-20T03:53:12;9.48;;;6.20;;
7645;SDS011;3864;48.180;14.178;2023-07-20T03:55:39;11.15;;;6.25;;
7645;SDS011;3864;48.180;14.178;2023-07-20T03:58:07;8.80;;;5.95;;
7645;SDS011;3864;48.180;14.178;2023-07-20T04:00:34;11.27;;;6.50;;
7645;SDS011;3864;48.180;14.178;2023-07-20T04:03:01;11.05;;;5.88;;
7645;SDS011;3864;48.180;14.178;2023-07-20T04:05:29;9.82;;;6.13;;
7645;SDS011;3864;48.180;14.178;2023-07-20T04:07:58;11.45;;;6.63;;
7645;SDS011;3864;48.180;14.178;2023-07-20T04:10:26;9.45;;;6.07;;
7645;SDS011;3864;48.180;14.178;2023-07-20T04:12:53;10.68;;;5.88;;
7645;SDS011;3864;48.180;14.178;2023-07-20T04:15:20;7.97;;;6.05;;
7645;SDS011;3864;48.180;14.178;2023-07-20T04:17:47;9.07;;;5.93;;
7645;SDS011;3864;48.180;14.178;2023-07-20T04:20:15;10.43;;;6.15;;
7645;SDS011;3864;48.180;14.178;2023-07-20T04:22:43;10.40;;;5.72;;
7645;SDS011;3864;48.180;14.178;2023-07-20T04:25:11;7.90;;;5.03;;
7645;SDS011;3864;48.180;14.178;2023-07-20T04:27:39;9.27;;;5.47;;
7645;SDS011;3864;48.180;14.178;2023-07-20T04:30:07;8.45;;;5.63;;
7645;SDS011;3864;48.180;14.178;2023-07-20T04:32:36;6.75;;;4.70;;
7645;SDS011;3864;48.180;14.178;2023-07-20T04:35:09;8.98;;;4.97;;
7645;SDS011;3864;48.180;14.178;2023-07-20T04:37:36;6.85;;;4.68;;
7645;SDS011;3864;48.180;14.178;2023-07-20T04:40:15;8.85;;;5.35;;
7645;SDS011;3864;48.180;14.178;2023-07-20T04:42:42;6.50;;;4.97;;
7645;SDS011;3864;48.180;14.178;2023-07-20T04:45:09;7.25;;;4.75;;
7645;SDS011;3864;48.180;14.178;2023-07-20T04:47:38;7.03;;;4.45;;
7645;SDS011;3864;48.180;14.178;2023-07-20T04:50:05;7.13;;;4.40;;
7645;SDS011;3864;48.180;14.178;2023-07-20T04:52:33;6.07;;;4.15;;
7645;SDS011;3864;48.180;14.178;2023-07-20T04:55:02;6.10;;;4.07;;
7645;SDS011;3864;48.180;14.178;2023-07-20T04:57:32;7.43;;;4.57;;
7645;SDS011;3864;48.180;14.178;2023-07-20T04:59:59;12.20;;;4.97;;
7645;SDS011;3864;48.180;14.178;2023-07-20T05:02:27;8.70;;;5.13;;
7645;SDS011;3864;48.180;14.178;2023-07-20T05:04:54;6.93;;;4.47;;
7645;SDS011;3864;48.180;14.178;2023-07-20T05:07:21;6.68;;;4.47;;
7645;SDS011;3864;48.180;14.178;2023-07-20T05:09:49;8.40;;;4.90;;
7645;SDS011;3864;48.180;14.178;2023-07-20T05:12:16;10.18;;;4.70;;
7645;SDS011;3864;48.180;14.178;2023-07-20T05:14:45;6.82;;;4.60;;
7645;SDS011;3864;48.180;14.178;2023-07-20T05:17:12;6.47;;;4.45;;
7645;SDS011;3864;48.180;14.178;2023-07-20T05:19:39;8.60;;;4.18;;
7645;SDS011;3864;48.180;14.178;2023-07-20T05:22:07;7.57;;;4.68;;
7645;SDS011;3864;48.180;14.178;2023-07-20T05:24:35;8.13;;;4.57;;
7645;SDS011;3864;48.180;14.178;2023-07-20T05:27:03;7.95;;;4.30;;
7645;SDS011;3864;48.180;14.178;2023-07-20T05:29:30;6.55;;;4.38;;
7645;SDS011;3864;48.180;14.178;2023-07-20T05:32:00;6.60;;;4.40;;
7645;SDS011;3864;48.180;14.178;2023-07-20T05:34:28;5.43;;;4.18;;
7645;SDS011;3864;48.180;14.178;2023-07-20T05:37:10;9.55;;;4.70;;
7645;SDS011;3864;48.180;14.178;2023-07-20T05:39:37;7.93;;;4.60;;
7645;SDS011;3864;48.180;14.178;2023-07-20T05:42:05;9.57;;;4.68;;
7645;SDS011;3864;48.180;14.178;2023-07-20T05:44:32;14.07;;;4.65;;
7645;SDS011;3864;48.180;14.178;2023-07-20T05:47:01;6.38;;;4.20;;
7645;SDS011;3864;48.180;14.178;2023-07-20T05:49:29;11.13;;;4.57;;
7645;SDS011;3864;48.180;14.178;2023-07-20T05:51:58;6.13;;;4.15;;
7645;SDS011;3864;48.180;14.178;2023-07-20T05:54:26;6.75;;;4.00;;
7645;SDS011;3864;48.180;14.178;2023-07-20T05:56:53;9.35;;;4.90;;
7645;SDS011;3864;48.180;14.178;2023-07-20T05:59:21;7.85;;;4.80;;
7645;SDS011;3864;48.180;14.178;2023-07-20T06:01:49;7.28;;;4.93;;
7645;SDS011;3864;48.180;14.178;2023-07-20T06:04:18;10.15;;;5.20;;
7645;SDS011;3864;48.180;14.178;2023-07-20T06:06:45;6.68;;;4.38;;
7645;SDS011;3864;48.180;14.178;2023-07-20T06:09:13;7.85;;;4.18;;
7645;SDS011;3864;48.180;14.178;2023-07-20T06:11:40;7.32;;;4.57;;
7645;SDS011;3864;48.180;14.178;2023-07-20T06:14:07;5.97;;;4.18;;
7645;SDS011;3864;48.180;14.178;2023-07-20T06:16:35;6.97;;;4.15;;
7645;SDS011;3864;48.180;14.178;2023-07-20T06:19:02;6.95;;;4.40;;
7645;SDS011;3864;48.180;14.178;2023-07-20T06:21:31;8.75;;;4.55;;
7645;SDS011;3864;48.180;14.178;2023-07-20T06:23:58;6.93;;;4.30;;
7645;SDS011;3864;48.180;14.178;2023-07-20T06:26:26;5.25;;;3.72;;
7645;SDS011;3864;48.180;14.178;2023-07-20T06:28:53;6.53;;;4.38;;
7645;SDS011;3864;48.180;14.178;2023-07-20T06:31:21;7.28;;;4.63;;
7645;SDS011;3864;48.180;14.178;2023-07-20T06:33:48;6.72;;;4.72;;
7645;SDS011;3864;48.180;14.178;2023-07-20T06:36:16;6.88;;;4.28;;
7645;SDS011;3864;48.180;14.178;2023-07-20T06:38:45;8.35;;;4.03;;
7645;SDS011;3864;48.180;14.178;2023-07-20T06:41:12;8.27;;;4.50;;
7645;SDS011;3864;48.180;14.178;2023-07-20T06:43:40;6.47;;;4.72;;
7645;SDS011;3864;48.180;14.178;2023-07-20T06:46:07;6.18;;;3.55;;
7645;SDS011;3864;48.180;14.178;2023-07-20T06:48:34;6.40;;;4.47;;
7645;SDS011;3864;48.180;14.178;2023-07-20T06:51:02;6.88;;;3.50;;
7645;SDS011;3864;48.180;14.178;2023-07-20T06:53:29;5.63;;;3.83;;
7645;SDS011;3864;48.180;14.178;2023-07-20T06:55:59;5.18;;;3.50;;
7645;SDS011;3864;48.180;14.178;2023-07-20T06:58:26;5.57;;;3.17;;
7645;SDS011;3864;48.180;14.178;2023-07-20T07:00:53;6.18;;;3.55;;
7645;SDS011;3864;48.180;14.178;2023-07-20T07:03:20;4.35;;;3.33;;
7645;SDS011;3864;48.180;14.178;2023-07-20T07:05:48;6.90;;;3.08;;
7645;SDS011;3864;48.180;14.178;2023-07-20T07:08:15;6.18;;;2.90;;
7645;SDS011;3864;48.180;14.178;2023-07-20T07:10:42;5.75;;;3.30;;
7645;SDS011;3864;48.180;14.178;2023-07-20T07:13:11;4.43;;;2.80;;
7645;SDS011;3864;48.180;14.178;2023-07-20T07:15:39;5.15;;;3.20;;
7645;SDS011;3864;48.180;14.178;2023-07-20T07:18:06;5.82;;;3.08;;
7645;SDS011;3864;48.180;14.178;2023-07-20T07:20:33;5.38;;;2.72;;
7645;SDS011;3864;48.180;14.178;2023-07-20T07:23:01;6.00;;;2.90;;
7645;SDS011;3864;48.180;14.178;2023-07-20T07:25:32;4.88;;;3.20;;
7645;SDS011;3864;48.180;14.178;2023-07-20T07:27:59;5.38;;;2.70;;
7645;SDS011;3864;48.180;14.178;2023-07-20T07:30:28;5.22;;;3.25;;
7645;SDS011;3864;48.180;14.178;2023-07-20T07:32:55;6.00;;;2.88;;
7645;SDS011;3864;48.180;14.178;2023-07-20T07:35:23;4.90;;;2.80;;
7645;SDS011;3864;48.180;14.178;2023-07-20T07:37:50;6.93;;;3.58;;
7645;SDS011;3864;48.180;14.178;2023-07-20T07:40:17;5.05;;;3.20;;
7645;SDS011;3864;48.180;14.178;2023-07-20T07:42:45;6.07;;;3.05;;
7645;SDS011;3864;48.180;14.178;2023-07-20T07:45:12;5.53;;;3.28;;
7645;SDS011;3864;48.180;14.178;2023-07-20T07:47:41;4.88;;;3.10;;
7645;SDS011;3864;48.180;14.178;2023-07-20T07:50:09;5.40;;;2.83;;
7645;SDS011;3864;48.180;14.178;2023-07-20T07:52:37;7.28;;;2.70;;
7645;SDS011;3864;48.180;14.178;2023-07-20T07:55:05;7.32;;;2.95;;
7645;SDS011;3864;48.180;14.178;2023-07-20T07:57:32;5.25;;;2.72;;
7645;SDS011;3864;48.180;14.178;2023-07-20T08:00:00;5.80;;;2.70;;
7645;SDS011;3864;48.180;14.178;2023-07-20T08:02:28;4.45;;;2.80;;
7645;SDS011;3864;48.180;14.178;2023-07-20T08:04:57;5.07;;;3.00;;
7645;SDS011;3864;48.180;14.178;2023-07-20T08:07:25;4.80;;;2.72;;
7645;SDS011;3864;48.180;14.178;2023-07-20T08:09:53;7.07;;;3.15;;
7645;SDS011;3864;48.180;14.178;2023-07-20T08:12:20;6.63;;;3.00;;
7645;SDS011;3864;48.180;14.178;2023-07-20T08:14:48;6.07;;;2.67;;
7645;SDS011;3864;48.180;14.178;2023-07-20T08:17:15;5.55;;;3.00;;
7645;SDS011;3864;48.180;14.178;2023-07-20T08:19:42;4.65;;;2.90;;
7645;SDS011;3864;48.180;14.178;2023-07-20T08:22:12;6.60;;;3.17;;
7645;SDS011;3864;48.180;14.178;2023-07-20T08:24:39;4.28;;;2.88;;
7645;SDS011;3864;48.180;14.178;2023-07-20T08:27:07;5.03;;;3.05;;
7645;SDS011;3864;48.180;14.178;2023-07-20T08:29:35;4.50;;;3.20;;
7645;SDS011;3864;48.180;14.178;2023-07-20T08:32:02;4.30;;;2.67;;
7645;SDS011;3864;48.180;14.178;2023-07-20T08:34:30;6.28;;;3.10;;
7645;SDS011;3864;48.180;14.178;2023-07-20T08:36:58;6.30;;;3.25;;
7645;SDS011;3864;48.180;14.178;2023-07-20T08:39:27;4.78;;;3.05;;
7645;SDS011;3864;48.180;14.178;2023-07-20T08:41:54;4.10;;;2.60;;
7645;SDS011;3864;48.180;14.178;2023-07-20T08:44:22;5.13;;;2.70;;
7645;SDS011;3864;48.180;14.178;2023-07-20T08:46:52;6.75;;;3.05;;
7645;SDS011;3864;48.180;14.178;2023-07-20T08:49:20;5.38;;;2.88;;
7645;SDS011;3864;48.180;14.178;2023-07-20T08:51:48;7.90;;;2.60;;
7645;SDS011;3864;48.180;14.178;2023-07-20T08:54:15;4.80;;;3.00;;
7645;SDS011;3864;48.180;14.178;2023-07-20T08:56:45;4.78;;;2.67;;
7645;SDS011;3864;48.180;14.178;2023-07-20T08:59:13;4.65;;;2.78;;
7645;SDS011;3864;48.180;14.178;2023-07-20T09:01:42;5.10;;;2.80;;
7645;SDS011;3864;48.180;14.178;2023-07-20T09:04:11;4.68;;;2.65;;
7645;SDS011;3864;48.180;14.178;2023-07-20T09:06:39;3.95;;;2.50;;
7645;SDS011;3864;48.180;14.178;2023-07-20T09:09:06;4.47;;;2.50;;
7645;SDS011;3864;48.180;14.178;2023-07-20T09:11:33;4.15;;;2.53;;
7645;SDS011;3864;48.180;14.178;2023-07-20T09:14:05;5.18;;;2.50;;
7645;SDS011;3864;48.180;14.178;2023-07-20T09:19:13;5.60;;;2.45;;
7645;SDS011;3864;48.180;14.178;2023-07-20T09:21:43;3.83;;;2.63;;
7645;SDS011;3864;48.180;14.178;2023-07-20T09:24:11;6.13;;;3.17;;
7645;SDS011;3864;48.180;14.178;2023-07-20T09:26:42;4.00;;;2.33;;
7645;SDS011;3864;48.180;14.178;2023-07-20T09:29:12;4.75;;;2.60;;
7645;SDS011;3864;48.180;14.178;2023-07-20T09:31:39;4.35;;;2.42;;
7645;SDS011;3864;48.180;14.178;2023-07-20T09:34:06;3.60;;;2.65;;
7645;SDS011;3864;48.180;14.178;2023-07-20T09:36:34;4.25;;;2.47;;
7645;SDS011;3864;48.180;14.178;2023-07-20T09:39:03;4.57;;;2.50;;
7645;SDS011;3864;48.180;14.178;2023-07-20T09:41:30;4.03;;;2.83;;
7645;SDS011;3864;48.180;14.178;2023-07-20T09:44:07;7.15;;;2.90;;
7645;SDS011;3864;48.180;14.178;2023-07-20T09:46:43;5.00;;;2.47;;
7645;SDS011;3864;48.180;14.178;2023-07-20T09:49:11;5.82;;;2.75;;
7645;SDS011;3864;48.180;14.178;2023-07-20T09:51:39;4.63;;;2.60;;
7645;SDS011;3864;48.180;14.178;2023-07-20T09:54:07;7.55;;;2.80;;
7645;SDS011;3864;48.180;14.178;2023-07-20T09:56:34;4.45;;;2.45;;
7645;SDS011;3864;48.180;14.178;2023-07-20T09:59:03;7.90;;;2.80;;
7645;SDS011;3864;48.180;14.178;2023-07-20T10:01:31;4.90;;;2.45;;
7645;SDS011;3864;48.180;14.178;2023-07-20T10:04:03;3.85;;;2.58;;
7645;SDS011;3864;48.180;14.178;2023-07-20T10:06:32;3.85;;;2.45;;
7645;SDS011;3864;48.180;14.178;2023-07-20T10:09:02;3.78;;;2.42;;
7645;SDS011;3864;48.180;14.178;2023-07-20T10:11:34;4.75;;;2.47;;
7645;SDS011;3864;48.180;14.178;2023-07-20T10:14:03;4.13;;;2.50;;
7645;SDS011;3864;48.180;14.178;2023-07-20T10:16:36;3.80;;;2.20;;
7645;SDS011;3864;48.180;14.178;2023-07-20T10:19:17;3.95;;;2.30;;
7645;SDS011;3864;48.180;14.178;2023-07-20T10:21:51;4.22;;;2.63;;
7645;SDS011;3864;48.180;14.178;2023-07-20T10:24:30;4.35;;;2.50;;
7645;SDS011;3864;48.180;14.178;2023-07-20T10:26:58;5.43;;;2.38;;
7645;SDS011;3864;48.180;14.178;2023-07-20T10:29:27;4.22;;;2.13;;
7645;SDS011;3864;48.180;14.178;2023-07-20T10:31:56;4.18;;;2.15;;
7645;SDS011;3864;48.180;14.178;2023-07-20T10:34:26;3.42;;;2.13;;
7645;SDS011;3864;48.180;14.178;2023-07-20T10:36:54;3.70;;;2.33;;
7645;SDS011;3864;48.180;14.178;2023-07-20T10:39:24;3.03;;;2.15;;
7645;SDS011;3864;48.180;14.178;2023-07-20T10:41:59;5.03;;;2.00;;
7645;SDS011;3864;48.180;14.178;2023-07-20T10:44:28;4.45;;;2.65;;
7645;SDS011;3864;48.180;14.178;2023-07-20T10:46:59;3.60;;;2.00;;
7645;SDS011;3864;48.180;14.178;2023-07-20T10:49:29;3.30;;;2.15;;
7645;SDS011;3864;48.180;14.178;2023-07-20T10:52:00;3.40;;;2.60;;
7645;SDS011;3864;48.180;14.178;2023-07-20T10:54:34;4.28;;;2.33;;
7645;SDS011;3864;48.180;14.178;2023-07-20T10:57:22;4.88;;;2.05;;
7645;SDS011;3864;48.180;14.178;2023-07-20T11:02:48;4.90;;;2.80;;
7645;SDS011;3864;48.180;14.178;2023-07-20T11:05:34;3.72;;;2.50;;
7645;SDS011;3864;48.180;14.178;2023-07-20T11:08:03;4.22;;;2.20;;
7645;SDS011;3864;48.180;14.178;2023-07-20T11:10:32;3.83;;;2.20;;
7645;SDS011;3864;48.180;14.178;2023-07-20T11:13:18;5.82;;;2.40;;
7645;SDS011;3864;48.180;14.178;2023-07-20T11:15:48;3.80;;;2.03;;
7645;SDS011;3864;48.180;14.178;2023-07-20T11:18:28;5.00;;;2.50;;
7645;SDS011;3864;48.180;14.178;2023-07-20T11:20:57;7.80;;;2.88;;
7645;SDS011;3864;48.180;14.178;2023-07-20T11:23:25;4.28;;;2.30;;
7645;SDS011;3864;48.180;14.178;2023-07-20T11:25:52;5.00;;;2.40;;
7645;SDS011;3864;48.180;14.178;2023-07-20T11:28:20;4.75;;;2.58;;
7645;SDS011;3864;48.180;14.178;2023-07-20T11:30:50;4.45;;;2.10;;
7645;SDS011;3864;48.180;14.178;2023-07-20T11:33:20;4.32;;;2.30;;
7645;SDS011;3864;48.180;14.178;2023-07-20T11:35:48;6.97;;;2.50;;
7645;SDS011;3864;48.180;14.178;2023-07-20T11:38:19;4.47;;;2.40;;
7645;SDS011;3864;48.180;14.178;2023-07-20T11:40:46;4.57;;;2.50;;
7645;SDS011;3864;48.180;14.178;2023-07-20T11:43:14;3.50;;;2.17;;
7645;SDS011;3864;48.180;14.178;2023-07-20T11:45:41;3.72;;;2.22;;
7645;SDS011;3864;48.180;14.178;2023-07-20T11:48:14;4.20;;;2.65;;
7645;SDS011;3864;48.180;14.178;2023-07-20T11:50:41;3.42;;;2.20;;
7645;SDS011;3864;48.180;14.178;2023-07-20T11:53:09;4.00;;;2.67;;
7645;SDS011;3864;48.180;14.178;2023-07-20T11:55:38;2.72;;;1.75;;
7645;SDS011;3864;48.180;14.178;2023-07-20T11:58:07;4.80;;;2.40;;
7645;SDS011;3864;48.180;14.178;2023-07-20T12:00:36;3.53;;;2.30;;
7645;SDS011;3864;48.180;14.178;2023-07-20T12:03:05;3.47;;;2.00;;
7645;SDS011;3864;48.180;14.178;2023-07-20T12:05:33;3.40;;;2.10;;
7645;SDS011;3864;48.180;14.178;2023-07-20T12:08:01;5.22;;;2.22;;
7645;SDS011;3864;48.180;14.178;2023-07-20T12:10:30;4.22;;;2.40;;
7645;SDS011;3864;48.180;14.178;2023-07-20T12:13:03;4.65;;;2.20;;
7645;SDS011;3864;48.180;14.178;2023-07-20T12:15:30;3.65;;;2.33;;
7645;SDS011;3864;48.180;14.178;2023-07-20T12:17:58;3.70;;;2.83;;
7645;SDS011;3864;48.180;14.178;2023-07-20T12:20:27;6.15;;;2.10;;
7645;SDS011;3864;48.180;14.178;2023-07-20T12:22:56;4.60;;;2.20;;
7645;SDS011;3864;48.180;14.178;2023-07-20T12:25:37;3.13;;;2.10;;
7645;SDS011;3864;48.180;14.178;2023-07-20T12:28:09;3.58;;;2.13;;
7645;SDS011;3864;48.180;14.178;2023-07-20T12:30:37;4.57;;;2.17;;
7645;SDS011;3864;48.180;14.178;2023-07-20T12:33:05;4.07;;;2.00;;
7645;SDS011;3864;48.180;14.178;2023-07-20T12:35:32;4.35;;;2.10;;
7645;SDS011;3864;48.180;14.178;2023-07-20T12:38:00;4.25;;;2.10;;
7645;SDS011;3864;48.180;14.178;2023-07-20T12:40:27;5.28;;;2.20;;
7645;SDS011;3864;48.180;14.178;2023-07-20T12:42:55;4.38;;;2.00;;
7645;SDS011;3864;48.180;14.178;2023-07-20T12:45:25;2.53;;;1.90;;
7645;SDS011;3864;48.180;14.178;2023-07-20T12:47:52;3.63;;;1.90;;
7645;SDS011;3864;48.180;14.178;2023-07-20T12:50:19;3.47;;;1.98;;
7645;SDS011;3864;48.180;14.178;2023-07-20T12:52:47;4.03;;;2.20;;
7645;SDS011;3864;48.180;14.178;2023-07-20T12:55:14;4.70;;;2.20;;
7645;SDS011;3864;48.180;14.178;2023-07-20T12:57:41;4.97;;;2.45;;
7645;SDS011;3864;48.180;14.178;2023-07-20T13:00:10;3.28;;;2.35;;
7645;SDS011;3864;48.180;14.178;2023-07-20T13:02:39;3.95;;;2.15;;
7645;SDS011;3864;48.180;14.178;2023-07-20T13:05:07;5.07;;;2.42;;
7645;SDS011;3864;48.180;14.178;2023-07-20T13:07:35;3.83;;;2.83;;
7645;SDS011;3864;48.180;14.178;2023-07-20T13:10:04;4.25;;;2.53;;
7645;SDS011;3864;48.180;14.178;2023-07-20T13:12:33;4.05;;;2.15;;
7645;SDS011;3864;48.180;14.178;2023-07-20T13:15:01;4.72;;;2.20;;
7645;SDS011;3864;48.180;14.178;2023-07-20T13:17:30;3.28;;;2.17;;
7645;SDS011;3864;48.180;14.178;2023-07-20T13:20:00;4.70;;;2.10;;
7645;SDS011;3864;48.180;14.178;2023-07-20T13:22:29;3.60;;;2.30;;
7645;SDS011;3864;48.180;14.178;2023-07-20T13:24:56;4.57;;;2.20;;
7645;SDS011;3864;48.180;14.178;2023-07-20T13:27:24;3.70;;;1.90;;
7645;SDS011;3864;48.180;14.178;2023-07-20T13:29:52;3.25;;;1.85;;
7645;SDS011;3864;48.180;14.178;2023-07-20T13:32:19;4.47;;;2.22;;
7645;SDS011;3864;48.180;14.178;2023-07-20T13:34:47;3.42;;;2.20;;
7645;SDS011;3864;48.180;14.178;2023-07-20T13:37:15;3.42;;;2.08;;
7645;SDS011;3864;48.180;14.178;2023-07-20T13:39:43;2.78;;;1.80;;
7645;SDS011;3864;48.180;14.178;2023-07-20T13:42:10;4.25;;;2.30;;
7645;SDS011;3864;48.180;14.178;2023-07-20T13:44:38;3.28;;;1.92;;
7645;SDS011;3864;48.180;14.178;2023-07-20T13:47:05;3.33;;;2.03;;
7645;SDS011;3864;48.180;14.178;2023-07-20T13:49:33;5.07;;;2.33;;
7645;SDS011;3864;48.180;14.178;2023-07-20T13:52:00;5.90;;;2.65;;
7645;SDS011;3864;48.180;14.178;2023-07-20T13:54:29;3.53;;;2.20;;
7645;SDS011;3864;48.180;14.178;2023-07-20T13:56:56;3.92;;;2.15;;
7645;SDS011;3864;48.180;14.178;2023-07-20T13:59:23;3.03;;;2.00;;
7645;SDS011;3864;48.180;14.178;2023-07-20T14:01:51;3.45;;;2.10;;
7645;SDS011;3864;48.180;14.178;2023-07-20T14:04:19;7.78;;;2.42;;
7645;SDS011;3864;48.180;14.178;2023-07-20T14:06:46;2.92;;;2.08;;
7645;SDS011;3864;48.180;14.178;2023-07-20T14:09:13;3.17;;;2.03;;
7645;SDS011;3864;48.180;14.178;2023-07-20T14:11:42;4.10;;;2.20;;
7645;SDS011;3864;48.180;14.178;2023-07-20T14:14:10;3.63;;;2.00;;
7645;SDS011;3864;48.180;14.178;2023-07-20T14:16:37;3.10;;;2.10;;
7645;SDS011;3864;48.180;14.178;2023-07-20T14:19:05;3.15;;;2.08;;
7645;SDS011;3864;48.180;14.178;2023-07-20T14:21:32;3.50;;;2.20;;
7645;SDS011;3864;48.180;14.178;2023-07-20T14:23:59;3.92;;;2.25;;
7645;SDS011;3864;48.180;14.178;2023-07-20T14:26:27;3.80;;;2.10;;
7645;SDS011;3864;48.180;14.178;2023-07-20T14:28:56;5.28;;;2.30;;
7645;SDS011;3864;48.180;14.178;2023-07-20T14:31:23;3.70;;;2.40;;
7645;SDS011;3864;48.180;14.178;2023-07-20T14:33:51;3.97;;;2.25;;
7645;SDS011;3864;48.180;14.178;2023-07-20T14:36:18;4.38;;;2.13;;
7645;SDS011;3864;48.180;14.178;2023-07-20T14:38:46;4.13;;;2.20;;
7645;SDS011;3864;48.180;14.178;2023-07-20T14:41:13;5.90;;;2.35;;
7645;SDS011;3864;48.180;14.178;2023-07-20T14:43:40;8.25;;;2.40;;
7645;SDS011;3864;48.180;14.178;2023-07-20T14:46:09;5.32;;;2.20;;
7645;SDS011;3864;48.180;14.178;2023-07-20T14:48:36;4.25;;;2.55;;
7645;SDS011;3864;48.180;14.178;2023-07-20T14:51:04;3.63;;;2.10;;
7645;SDS011;3864;48.180;14.178;2023-07-20T14:53:31;3.35;;;2.10;;
7645;SDS011;3864;48.180;14.178;2023-07-20T14:55:59;4.32;;;2.20;;
7645;SDS011;3864;48.180;14.178;2023-07-20T14:58:27;4.70;;;2.00;;
7645;SDS011;3864;48.180;14.178;2023-07-20T15:00:54;3.47;;;2.35;;
7645;SDS011;3864;48.180;14.178;2023-07-20T15:03:23;5.05;;;2.63;;
7645;SDS011;3864;48.180;14.178;2023-07-20T15:05:51;3.40;;;2.08;;
7645;SDS011;3864;48.180;14.178;2023-07-20T15:08:18;4.60;;;2.40;;
7645;SDS011;3864;48.180;14.178;2023-07-20T15:10:46;4.03;;;2.20;;
7645;SDS011;3864;48.180;14.178;2023-07-20T15:13:14;3.90;;;2.33;;
7645;SDS011;3864;48.180;14.178;2023-07-20T15:15:42;4.13;;;2.20;;
7645;SDS011;3864;48.180;14.178;2023-07-20T15:18:09;3.20;;;2.10;;